Time;durP1;ratioP1;P1;durP2;ratioP2;P2;SDS_P1;SDS_P2;PMS_P1;PMS_P2;Temp;Humidity;BMP_temperature;BMP_pressure;BME280_temperature;BME280_humidity;BME280_pressure;Samples;Min_cycle;Max_cycle;Signal;HPM_P1;HPM_P2
2023/06/25 00:00:00;;;;;;;7.03;6.10;;;;;;;13.07;98.21;98232.03;6174486;28;20236;-90
2023/06/25 00:03:02;;;;;;;6.07;5.30;;;;;;;12.74;98.00;98175.88;6190779;28;20226;-89
2023/06/25 00:06:05;;;;;;;6.07;5.47;;;;;;;12.90;98.47;98207.13;6156218;28;20333;-90
2023/06/25 00:09:09;;;;;;;9.10;6.07;;;;;;;13.05;98.36;98234.16;6156797;28;20231;-90
2023/06/25 00:12:12;;;;;;;7.23;6.50;;;;;;;12.84;98.35;98181.38;6166794;28;20640;-90
2023/06/25 00:15:14;;;;;;;7.07;6.33;;;;;;;13.06;98.16;98222.38;6159247;28;20214;-90
2023/06/25 00:18:16;;;;;;;8.20;6.43;;;;;;;13.01;98.14;98221.50;6189826;28;20216;-90
2023/06/25 00:21:19;;;;;;;7.27;6.10;;;;;;;12.82;98.22;98186.97;6168335;28;20221;-90
2023/06/25 00:24:21;;;;;;;6.37;5.77;;;;;;;12.82;98.17;98196.88;6163569;28;20386;-90
2023/06/25 00:27:24;;;;;;;7.43;6.63;;;;;;;12.90;98.34;98217.81;6164081;28;20237;-90
2023/06/25 00:30:26;;;;;;;8.30;7.17;;;;;;;12.93;98.26;98219.22;6173903;28;20240;-90
2023/06/25 00:33:28;;;;;;;7.17;6.30;;;;;;;12.88;98.32;98215.41;6158801;28;20236;-90
2023/06/25 00:36:36;;;;;;;7.80;6.93;;;;;;;12.73;98.48;98193.78;6172954;28;20240;-90
2023/06/25 00:39:38;;;;;;;9.43;7.70;;;;;;;12.67;98.61;98178.72;6166539;28;20234;-90
2023/06/25 00:42:42;;;;;;;8.10;6.73;;;;;;;12.70;98.93;98174.72;6174755;28;20241;-90
2023/06/25 00:45:44;;;;;;;8.60;7.80;;;;;;;12.37;99.37;98133.59;6190267;28;20241;-90
2023/06/25 00:48:47;;;;;;;10.73;8.67;;;;;;;12.43;99.38;98145.97;6190472;28;20245;-90
2023/06/25 00:51:50;;;;;;;11.07;8.57;;;;;;;12.89;99.87;98208.19;6175957;28;20267;-90
2023/06/25 00:54:53;;;;;;;10.57;9.47;;;;;;;12.81;99.83;98193.38;6160921;28;20680;-90
2023/06/25 00:57:57;;;;;;;14.17;10.10;;;;;;;12.37;100.00;98138.94;6150146;28;20244;-90
2023/06/25 01:00:59;;;;;;;11.20;9.00;;;;;;;12.59;100.00;98153.19;6159911;28;20241;-90
2023/06/25 01:04:10;;;;;;;13.00;10.53;;;;;;;11.79;100.00;98027.91;6160782;28;20234;-90
2023/06/25 01:07:17;;;;;;;12.63;11.17;;;;;;;12.79;100.00;98192.00;6179714;28;20242;-90
2023/06/25 01:10:20;;;;;;;13.63;10.47;;;;;;;11.54;100.00;97981.03;6172345;28;20245;-90
2023/06/25 01:13:22;;;;;;;19.10;14.20;;;;;;;12.98;100.00;98216.63;6202434;28;20237;-89
2023/06/25 01:16:25;;;;;;;13.80;10.00;;;;;;;12.80;100.00;98175.69;6144102;28;20254;-89
2023/06/25 01:19:30;;;;;;;12.73;10.63;;;;;;;12.53;100.00;98148.00;6160200;28;20233;-90
2023/06/25 01:22:33;;;;;;;14.10;10.40;;;;;;;12.78;100.00;98182.34;6193841;28;20252;-89
2023/06/25 01:25:38;;;;;;;10.43;9.33;;;;;;;12.85;100.00;98177.63;6186573;28;20245;-90
2023/06/25 01:28:41;;;;;;;10.73;9.60;;;;;;;12.48;100.00;98135.38;6184434;28;20246;-90
2023/06/25 01:31:43;;;;;;;12.60;9.53;;;;;;;12.50;100.00;98127.09;6183199;28;20300;-90
2023/06/25 01:34:45;;;;;;;10.27;8.33;;;;;;;12.07;100.00;98059.91;6176859;28;20240;-90
2023/06/25 01:37:52;;;;;;;8.03;7.23;;;;;;;12.57;100.00;98141.13;6174209;28;20782;-90
2023/06/25 01:40:54;;;;;;;9.33;7.77;;;;;;;12.88;100.00;98191.34;6165613;28;20257;-90
2023/06/25 01:43:57;;;;;;;7.70;6.90;;;;;;;12.81;100.00;98184.56;6179167;28;20248;-90
2023/06/25 01:46:59;;;;;;;10.13;6.93;;;;;;;11.89;100.00;98036.09;6169652;28;20232;-90
2023/06/25 01:50:02;;;;;;;7.70;6.73;;;;;;;12.60;100.00;98138.75;6160808;28;20226;-90
2023/06/25 01:53:05;;;;;;;7.53;6.63;;;;;;;11.66;100.00;97998.84;6165774;28;20304;-90
2023/06/25 01:56:07;;;;;;;9.37;6.37;;;;;;;12.79;100.00;98162.59;6155828;28;20338;-90
2023/06/25 01:59:10;;;;;;;7.83;6.57;;;;;;;12.70;100.00;98145.31;6169195;28;20364;-90
2023/06/25 02:02:12;;;;;;;7.60;6.90;;;;;;;12.70;100.00;98145.31;6161710;28;20229;-90
2023/06/25 02:05:14;;;;;;;8.33;6.33;;;;;;;12.50;100.00;98114.56;6188265;28;20226;-90
2023/06/25 02:08:17;;;;;;;9.90;8.97;;;;;;;12.81;100.00;98160.50;6155458;28;20485;-90
2023/06/25 02:11:19;;;;;;;11.87;10.53;;;;;;;12.45;100.00;98124.34;6140145;28;20261;-90
2023/06/25 02:14:21;;;;;;;9.77;8.40;;;;;;;12.40;100.00;98117.06;6189249;28;20240;-88
2023/06/25 02:17:24;;;;;;;11.30;10.07;;;;;;;12.58;100.00;98161.47;6154765;28;20360;-90
2023/06/25 02:20:26;;;;;;;10.67;9.10;;;;;;;12.62;100.00;98159.94;6188523;28;20309;-90
2023/06/25 02:23:29;;;;;;;10.93;9.30;;;;;;;12.75;100.00;98186.31;6151890;28;20233;-89
2023/06/25 02:26:31;;;;;;;15.00;12.70;;;;;;;12.58;100.00;98156.09;6164824;28;20261;-90
2023/06/25 02:29:33;;;;;;;13.63;10.70;;;;;;;12.36;100.00;98130.13;6149573;28;20249;-90
2023/06/25 02:32:36;;;;;;;12.50;11.20;;;;;;;12.54;100.00;98153.09;6138834;28;20364;-89
2023/06/25 02:35:40;;;;;;;13.07;10.07;;;;;;;12.29;100.00;98121.44;6155180;28;20229;-90
2023/06/25 02:38:43;;;;;;;16.80;11.63;;;;;;;12.43;100.00;98145.19;6171762;28;20233;-89
2023/06/25 02:41:45;;;;;;;13.30;11.07;;;;;;;11.93;100.00;98058.59;6171312;28;20232;-90
2023/06/25 02:44:47;;;;;;;15.97;12.77;;;;;;;11.28;100.00;97960.28;6170610;28;20236;-90
2023/06/25 02:47:49;;;;;;;13.40;11.57;;;;;;;12.38;100.00;98135.22;6186343;28;20324;-89
2023/06/25 02:50:52;;;;;;;15.40;10.77;;;;;;;12.31;100.00;98113.16;6163429;28;20226;-90
2023/06/25 02:53:54;;;;;;;14.03;10.83;;;;;;;12.72;100.00;98167.28;6171042;28;20236;-90
2023/06/25 02:56:57;;;;;;;12.60;10.03;;;;;;;12.29;100.00;98101.94;6154579;28;20237;-90
2023/06/25 03:00:00;;;;;;;12.97;10.43;;;;;;;11.90;100.00;98040.38;6163086;28;20234;-90
2023/06/25 03:03:03;;;;;;;11.63;10.53;;;;;;;12.24;100.00;98099.97;6169953;28;20276;-89
2023/06/25 03:06:06;;;;;;;15.57;11.27;;;;;;;12.63;100.00;98154.31;6168933;28;20213;-89
2023/06/25 03:09:10;;;;;;;14.23;10.83;;;;;;;12.84;100.00;98179.50;6172318;28;20233;-90
2023/06/25 03:12:12;;;;;;;12.37;10.90;;;;;;;12.71;100.00;98154.97;6139209;28;20308;-89
2023/06/25 03:15:14;;;;;;;16.80;11.50;;;;;;;12.94;100.00;98184.19;6151841;28;20226;-90
2023/06/25 03:18:17;;;;;;;17.50;13.73;;;;;;;12.61;100.00;98135.06;6169761;28;20209;-90
2023/06/25 03:21:19;;;;;;;15.20;11.53;;;;;;;12.88;100.00;98159.25;6155827;28;20224;-90
2023/06/25 03:24:22;;;;;;;13.70;11.20;;;;;;;13.11;100.00;98176.19;6170513;28;20237;-88
2023/06/25 03:27:26;;;;;;;13.10;11.73;;;;;;;12.72;100.00;98103.13;6157235;28;20229;-90
2023/06/25 03:30:28;;;;;;;14.27;10.80;;;;;;;12.25;100.00;98017.97;6170883;28;20241;-89
2023/06/25 03:33:30;;;;;;;11.60;10.40;;;;;;;12.96;100.00;98125.16;6171952;28;20356;-90
2023/06/25 03:36:33;;;;;;;11.57;9.60;;;;;;;13.04;100.00;98144.22;6138493;28;20226;-90
2023/06/25 03:39:36;;;;;;;12.73;10.83;;;;;;;13.46;100.00;98185.78;6186133;28;20325;-89
2023/06/25 03:42:38;;;;;;;10.63;9.43;;;;;;;13.22;100.00;98137.84;6168499;28;20226;-89
2023/06/25 03:45:42;;;;;;;11.70;9.17;;;;;;;13.39;100.00;98161.84;6151647;28;20233;-89
2023/06/25 03:48:44;;;;;;;9.73;8.73;;;;;;;13.48;100.00;98167.59;6155139;28;20641;-89
2023/06/25 03:51:47;;;;;;;10.07;8.30;;;;;;;13.46;100.00;98165.19;6161166;28;20607;-89
2023/06/25 03:54:50;;;;;;;10.13;8.97;;;;;;;13.77;100.00;98197.69;6155218;28;20605;-89
2023/06/25 03:57:55;;;;;;;9.10;8.20;;;;;;;13.25;100.00;98118.63;6154184;28;20229;-89
2023/06/25 04:00:57;;;;;;;8.97;8.10;;;;;;;13.31;100.00;98138.22;6168389;28;20633;-89
2023/06/25 04:04:00;;;;;;;8.40;7.60;;;;;;;13.37;100.00;98155.94;6159438;28;20241;-89
2023/06/25 04:07:05;;;;;;;8.13;7.33;;;;;;;13.22;100.00;98129.81;6167364;28;20238;-89
2023/06/25 04:10:07;;;;;;;8.60;7.80;;;;;;;13.68;100.00;98198.09;6189645;28;20241;-89
2023/06/25 04:13:10;;;;;;;9.10;8.20;;;;;;;13.70;100.00;98213.13;6157696;28;20234;-88
2023/06/25 04:16:13;;;;;;;8.60;7.63;;;;;;;13.55;100.00;98189.66;6163931;28;20273;-89
2023/06/25 04:19:15;;;;;;;10.63;8.07;;;;;;;13.72;100.00;98206.44;6157280;28;20242;-89
2023/06/25 04:22:18;;;;;;;8.43;7.70;;;;;;;13.47;100.00;98179.38;6147630;28;20328;-89
2023/06/25 04:25:21;;;;;;;11.27;7.63;;;;;;;13.63;100.00;98194.56;6141586;28;20269;-89
2023/06/25 04:28:23;;;;;;;8.60;7.53;;;;;;;13.65;100.00;98198.63;6165179;28;20234;-89
2023/06/25 04:31:26;;;;;;;8.97;8.03;;;;;;;13.84;100.00;98217.88;6173083;28;20233;-89
2023/06/25 04:34:29;;;;;;;9.47;7.40;;;;;;;13.60;100.00;98179.00;6142512;28;20252;-89
2023/06/25 04:37:32;;;;;;;9.27;8.23;;;;;;;13.92;100.00;98214.72;6189402;28;20240;-89
2023/06/25 04:40:34;;;;;;;9.47;8.57;;;;;;;13.54;100.00;98143.31;6165906;28;20237;-89
2023/06/25 04:43:36;;;;;;;9.43;8.43;;;;;;;13.98;100.00;98207.56;6140879;28;20734;-89
2023/06/25 04:46:39;;;;;;;9.73;8.73;;;;;;;13.55;100.00;98120.06;6188494;28;20231;-89
2023/06/25 04:49:42;;;;;;;11.87;7.97;;;;;;;14.18;100.00;98217.69;6173436;28;20242;-90
2023/06/25 04:52:44;;;;;;;8.40;7.60;;;;;;;14.19;100.00;98203.25;6158601;28;20238;-89
2023/06/25 04:55:46;;;;;;;10.90;8.83;;;;;;;13.24;100.00;98038.59;6154275;28;20724;-90
2023/06/25 04:58:48;;;;;;;9.23;7.73;;;;;;;14.06;100.00;98176.84;6157070;28;20607;-89
2023/06/25 05:01:51;;;;;;;9.17;8.10;;;;;;;12.99;100.00;97981.03;6173191;28;20736;-89
2023/06/25 05:04:54;;;;;;;10.30;8.27;;;;;;;14.27;100.00;98188.56;6170379;28;20252;-89
2023/06/25 05:07:56;;;;;;;7.83;7.10;;;;;;;14.56;100.00;98227.50;6157196;28;20293;-89
2023/06/25 05:10:58;;;;;;;8.87;7.87;;;;;;;14.63;100.00;98224.59;6149749;28;20226;-89
2023/06/25 05:14:07;;;;;;;12.07;7.60;;;;;;;14.28;100.00;98144.63;6141857;28;20708;-89
2023/06/25 05:17:09;;;;;;;7.90;7.20;;;;;;;14.52;100.00;98180.81;6155613;28;20229;-89
2023/06/25 05:20:12;;;;;;;8.90;8.10;;;;;;;14.50;100.00;98153.44;6145531;28;20323;-89
2023/06/25 05:23:14;;;;;;;9.57;7.67;;;;;;;14.94;100.00;98212.28;6161988;28;20241;-89
2023/06/25 05:26:16;;;;;;;7.57;6.87;;;;;;;15.03;100.00;98208.06;6159655;28;20260;-89
2023/06/25 05:29:19;;;;;;;10.73;7.67;;;;;;;15.13;99.65;98215.38;6159902;28;20233;-90
2023/06/25 05:32:21;;;;;;;8.10;7.20;;;;;;;15.21;99.09;98204.13;6143520;28;20240;-90
2023/06/25 05:35:26;;;;;;;9.00;8.10;;;;;;;15.04;93.93;98169.41;6174088;28;20225;-90
2023/06/25 05:38:28;;;;;;;9.70;7.70;;;;;;;15.56;91.82;98211.56;6161478;28;20233;-90
2023/06/25 05:41:30;;;;;;;8.03;7.33;;;;;;;15.40;92.91;98166.94;6194083;28;20246;-88
2023/06/25 05:44:33;;;;;;;8.50;7.70;;;;;;;15.53;93.38;98160.28;6160182;28;20230;-89
2023/06/25 05:47:35;;;;;;;9.43;7.40;;;;;;;15.91;88.29;98205.63;6166056;28;20222;-89
2023/06/25 05:50:38;;;;;;;8.17;7.23;;;;;;;16.03;83.31;98186.56;6173513;28;20770;-89
2023/06/25 05:53:43;;;;;;;8.97;8.03;;;;;;;16.12;81.51;98168.84;6157515;28;20230;-89
2023/06/25 05:56:45;;;;;;;10.97;7.80;;;;;;;16.38;78.43;98188.50;6189284;28;20226;-90
2023/06/25 05:59:47;;;;;;;8.37;7.10;;;;;;;16.28;80.06;98168.88;6174080;28;20226;-89
2023/06/25 06:02:49;;;;;;;8.10;7.27;;;;;;;16.20;78.74;98149.50;6157082;28;20259;-90
2023/06/25 06:05:54;;;;;;;8.00;7.20;;;;;;;14.86;77.96;97942.63;6201360;28;20233;-90
2023/06/25 06:08:56;;;;;;;8.07;7.13;;;;;;;15.88;78.47;98062.94;6184770;28;20245;-89
2023/06/25 06:11:58;;;;;;;8.53;6.80;;;;;;;16.58;78.76;98168.09;6195428;28;20273;-89
2023/06/25 06:15:00;;;;;;;11.87;7.13;;;;;;;16.41;80.42;98139.59;6188221;28;20225;-89
2023/06/25 06:18:02;;;;;;;7.20;6.50;;;;;;;16.41;80.33;98154.91;6186721;28;20222;-88
2023/06/25 06:21:05;;;;;;;8.07;7.20;;;;;;;16.74;77.38;98158.97;6186240;28;20281;-90
2023/06/25 06:24:07;;;;;;;8.07;7.10;;;;;;;16.80;76.41;98141.78;6197412;28;20245;-89
2023/06/25 06:27:09;;;;;;;7.87;6.63;;;;;;;16.92;75.87;98141.47;6164768;28;20220;-89
2023/06/25 06:30:12;;;;;;;7.93;6.83;;;;;;;17.34;73.80;98169.91;6166345;28;20234;-91
2023/06/25 06:33:14;;;;;;;10.83;7.20;;;;;;;17.26;72.92;98139.00;6174561;28;20591;-89
2023/06/25 06:36:17;;;;;;;8.90;6.37;;;;;;;17.57;73.04;98177.41;6174680;28;20229;-90
2023/06/25 06:39:19;;;;;;;7.70;7.00;;;;;;;17.37;71.03;98096.66;6157869;28;20233;-90
2023/06/25 06:42:21;;;;;;;7.63;6.77;;;;;;;17.85;72.82;98167.09;6160150;28;20323;-90
2023/06/25 06:45:23;;;;;;;7.67;6.73;;;;;;;18.28;70.27;98195.97;6153034;28;20238;-89
2023/06/25 06:48:26;;;;;;;7.90;6.87;;;;;;;18.50;68.81;98189.34;6149507;28;20294;-90
2023/06/25 06:51:29;;;;;;;7.73;6.60;;;;;;;18.18;67.51;98115.13;6159408;28;20754;-90
2023/06/25 06:54:32;;;;;;;7.73;6.90;;;;;;;18.39;69.61;98163.53;6171898;28;20248;-90
2023/06/25 06:57:36;;;;;;;6.37;5.77;;;;;;;18.45;70.88;98162.41;6137926;28;20233;-90
2023/06/25 07:00:38;;;;;;;7.70;6.77;;;;;;;18.29;70.75;98138.25;6187433;28;20226;-90
2023/06/25 07:03:41;;;;;;;7.07;6.37;;;;;;;18.77;67.79;98192.44;6155091;28;20296;-90
2023/06/25 07:06:43;;;;;;;7.83;7.03;;;;;;;18.47;68.69;98136.78;6189434;28;20241;-89
2023/06/25 07:09:53;;;;;;;7.00;6.40;;;;;;;18.58;68.94;98142.91;6153914;28;20242;-89
2023/06/25 07:12:55;;;;;;;7.27;6.00;;;;;;;18.70;68.07;98148.75;6168132;28;20234;-90
2023/06/25 07:15:58;;;;;;;7.57;6.43;;;;;;;18.70;68.38;98143.34;6142878;28;20389;-89
2023/06/25 07:19:01;;;;;;;7.37;6.53;;;;;;;18.70;67.94;98127.16;6162086;28;20233;-90
2023/06/25 07:22:04;;;;;;;8.90;6.67;;;;;;;19.01;67.13;98168.19;6164441;28;20229;-90
2023/06/25 07:25:12;;;;;;;7.63;6.40;;;;;;;18.52;66.29;98073.84;6187353;28;20226;-89
2023/06/25 07:28:14;;;;;;;7.20;6.50;;;;;;;19.23;67.58;98175.81;6154098;28;20234;-90
2023/06/25 07:31:17;;;;;;;9.20;7.00;;;;;;;19.05;63.87;98130.59;6187263;28;20237;-90
2023/06/25 07:34:19;;;;;;;7.13;6.43;;;;;;;19.11;64.32;98129.47;6166149;28;20288;-90
2023/06/25 07:37:21;;;;;;;8.43;6.80;;;;;;;18.10;65.73;97988.19;6147940;28;20267;-90
2023/06/25 07:40:24;;;;;;;7.30;6.60;;;;;;;18.87;67.39;98107.06;6173439;28;20238;-87
2023/06/25 07:43:27;;;;;;;7.17;6.50;;;;;;;19.17;67.45;98144.53;6190908;28;20240;-90
2023/06/25 07:46:30;;;;;;;7.90;6.90;;;;;;;19.43;65.27;98136.97;6145346;28;20261;-89
2023/06/25 07:49:33;;;;;;;7.50;6.80;;;;;;;19.32;65.91;98127.38;6164590;28;20234;-90
2023/06/25 07:52:35;;;;;;;9.13;7.57;;;;;;;19.48;62.74;98111.78;6160276;28;20237;-90
2023/06/25 07:55:40;;;;;;;8.30;7.03;;;;;;;19.62;63.18;98161.38;6189168;28;20259;-90
2023/06/25 07:59:03;;;;;;;7.73;7.03;;;;;;;19.33;65.24;98112.75;6161111;28;20316;-90
2023/06/25 08:02:05;;;;;;;9.47;6.80;;;;;;;19.66;67.37;98162.41;6154483;28;20237;-89
2023/06/25 08:05:08;;;;;;;7.47;6.77;;;;;;;19.64;67.12;98174.56;6162334;28;20229;-90
2023/06/25 08:08:10;;;;;;;8.07;7.17;;;;;;;19.52;64.67;98104.69;6190735;28;20257;-89
2023/06/25 08:11:13;;;;;;;8.57;6.53;;;;;;;19.76;63.91;98137.13;6163810;28;20222;-90
2023/06/25 08:14:15;;;;;;;9.33;6.70;;;;;;;19.91;63.60;98160.47;6162007;28;20237;-89
2023/06/25 08:17:17;;;;;;;7.53;6.80;;;;;;;19.94;65.17;98159.88;6165560;28;20237;-89
2023/06/25 08:20:20;;;;;;;7.40;6.67;;;;;;;20.02;65.56;98178.16;6191271;28;20233;-90
2023/06/25 08:23:22;;;;;;;6.87;6.23;;;;;;;19.52;66.56;98102.00;6165124;28;20237;-91
2023/06/25 08:26:25;;;;;;;7.10;6.40;;;;;;;19.86;66.19;98150.53;6173718;28;20236;-91
2023/06/25 08:29:32;;;;;;;7.03;6.33;;;;;;;20.13;64.97;98160.69;6158709;28;20233;-90
2023/06/25 08:32:35;;;;;;;7.07;6.37;;;;;;;20.09;64.14;98133.41;6158699;28;20230;-91
2023/06/25 08:35:37;;;;;;;7.70;6.50;;;;;;;20.21;62.42;98137.59;6157955;28;20320;-90
2023/06/25 08:38:40;;;;;;;7.57;6.87;;;;;;;20.00;63.47;98112.72;6166951;28;20221;-91
2023/06/25 08:41:42;;;;;;;8.27;6.57;;;;;;;20.08;61.36;98107.47;6164554;28;20245;-90
2023/06/25 08:44:45;;;;;;;8.77;6.93;;;;;;;20.15;62.11;98115.22;6158028;28;20237;-90
2023/06/25 08:47:54;;;;;;;10.27;6.70;;;;;;;20.66;59.79;98152.34;6150570;28;20233;-91
2023/06/25 08:51:03;;;;;;;7.37;6.63;;;;;;;19.64;60.92;97998.88;6157782;28;20232;-90
2023/06/25 08:54:06;;;;;;;8.27;6.90;;;;;;;20.73;57.67;98157.38;6162203;28;20222;-90
2023/06/25 08:57:09;;;;;;;9.33;6.43;;;;;;;19.46;61.04;97959.94;6169896;28;20214;-89
2023/06/25 09:00:13;;;;;;;9.37;7.07;;;;;;;20.76;60.40;98148.66;6142802;28;20220;-89
2023/06/25 09:03:15;;;;;;;9.10;6.63;;;;;;;19.44;60.27;97943.22;6169690;28;20222;-90
2023/06/25 09:06:18;;;;;;;7.80;6.90;;;;;;;20.33;62.57;98081.91;6165804;28;20296;-90
2023/06/25 09:09:20;;;;;;;7.97;6.87;;;;;;;19.04;57.20;97853.56;6156253;28;20225;-90
2023/06/25 09:12:24;;;;;;;8.23;6.53;;;;;;;20.81;60.26;98127.72;6165705;28;20241;-90
2023/06/25 09:15:26;;;;;;;8.60;6.80;;;;;;;20.80;60.60;98120.72;6157622;28;20275;-90
2023/06/25 09:18:29;;;;;;;7.63;6.77;;;;;;;20.80;61.89;98090.13;6189060;28;20236;-91
2023/06/25 09:21:38;;;;;;;7.57;6.53;;;;;;;21.24;57.21;98142.97;6164254;28;20229;-90
2023/06/25 09:24:49;;;;;;;7.37;6.67;;;;;;;20.16;59.14;97968.06;6172888;28;20723;-90
2023/06/25 09:27:53;;;;;;;6.80;5.67;;;;;;;20.98;54.54;98100.06;6167386;28;20234;-90
2023/06/25 09:30:58;;;;;;;7.67;6.40;;;;;;;19.80;55.91;97933.50;6156791;28;20245;-89
2023/06/25 09:34:04;;;;;;;9.07;6.20;;;;;;;20.57;54.85;98078.31;6173438;28;20234;-87
2023/06/25 09:37:07;;;;;;;8.17;6.83;;;;;;;20.63;57.68;98047.34;6157762;28;20554;-87
2023/06/25 09:40:10;;;;;;;7.37;5.90;;;;;;;21.22;58.40;98123.47;6169855;28;20242;-85
2023/06/25 09:43:12;;;;;;;7.77;6.30;;;;;;;21.13;60.13;98098.97;6169659;28;20244;-86
2023/06/25 09:46:15;;;;;;;9.17;7.17;;;;;;;21.22;56.41;98091.75;6155511;28;20225;-86
2023/06/25 09:49:19;;;;;;;8.43;6.87;;;;;;;21.27;55.96;98099.78;6155154;28;20249;-87
2023/06/25 09:52:25;;;;;;;9.40;6.97;;;;;;;20.94;60.37;98066.56;6152768;28;20222;-86
2023/06/25 09:55:29;;;;;;;7.33;6.63;;;;;;;21.10;60.50;98073.28;6139083;28;20653;-86
2023/06/25 09:58:33;;;;;;;8.73;6.40;;;;;;;21.40;57.15;98105.53;6158808;28;20230;-86
2023/06/25 10:01:37;;;;;;;8.57;6.70;;;;;;;21.21;56.66;98103.69;6154152;28;20236;-85
2023/06/25 10:04:39;;;;;;;8.87;7.27;;;;;;;21.01;56.25;98118.44;6153716;28;20229;-85
2023/06/25 10:07:46;;;;;;;7.80;6.87;;;;;;;20.66;56.73;98073.84;6187559;28;20240;-85
2023/06/25 10:10:59;;;;;;;8.80;6.77;;;;;;;21.05;56.14;98095.06;6188525;28;20241;-85
2023/06/25 10:14:04;;;;;;;8.57;6.80;;;;;;;21.00;54.32;98046.41;6162324;28;20324;-86
2023/06/25 10:17:08;;;;;;;7.80;7.00;;;;;;;21.13;54.86;98052.91;6168999;28;20226;-86
2023/06/25 10:20:11;;;;;;;8.00;7.20;;;;;;;21.08;55.18;98074.69;6156212;28;20240;-87
2023/06/25 10:23:23;;;;;;;7.30;6.60;;;;;;;21.19;58.53;98110.53;6135094;28;20368;-87
2023/06/25 10:26:30;;;;;;;10.43;7.57;;;;;;;21.09;53.91;98033.75;6156094;28;20293;-86
2023/06/25 10:29:40;;;;;;;7.97;6.37;;;;;;;21.54;55.73;98088.16;6163687;28;20269;-86
2023/06/25 10:32:42;;;;;;;8.63;6.80;;;;;;;21.74;56.07;98108.63;6154829;28;20325;-87
2023/06/25 10:35:54;;;;;;;7.67;6.97;;;;;;;21.64;54.64;98062.75;6155927;28;20233;-86
2023/06/25 10:38:58;;;;;;;7.73;6.93;;;;;;;21.90;51.06;98095.53;6155360;28;20233;-86
2023/06/25 10:42:03;;;;;;;7.60;6.90;;;;;;;21.76;53.43;98098.25;6159311;28;20226;-86
2023/06/25 10:45:07;;;;;;;8.07;6.70;;;;;;;21.59;57.12;98087.25;6169848;28;20225;-86
2023/06/25 10:48:12;;;;;;;7.63;6.83;;;;;;;21.49;54.93;98053.03;6169740;28;20213;-86
2023/06/25 10:51:14;;;;;;;9.07;6.77;;;;;;;21.70;52.20;98047.97;6163304;28;20218;-87
2023/06/25 10:54:20;;;;;;;9.27;7.20;;;;;;;21.83;52.18;98068.03;6155703;28;20698;-86
2023/06/25 10:57:22;;;;;;;6.97;6.37;;;;;;;21.84;53.98;98059.56;6154822;28;20364;-87
2023/06/25 11:00:27;;;;;;;7.80;7.00;;;;;;;21.68;53.07;98009.50;6159631;28;20229;-87
2023/06/25 11:03:35;;;;;;;7.43;6.70;;;;;;;22.19;52.12;98078.88;6153427;28;20261;-87
2023/06/25 11:06:37;;;;;;;10.27;6.57;;;;;;;21.92;52.91;98027.41;6160735;28;20715;-87
2023/06/25 11:09:40;;;;;;;7.90;7.10;;;;;;;22.02;49.10;98021.72;6190603;28;20245;-88
2023/06/25 11:12:43;;;;;;;9.63;7.10;;;;;;;22.39;51.53;98070.25;6158400;28;20238;-87
2023/06/25 11:15:45;;;;;;;7.43;6.67;;;;;;;22.01;49.74;97998.41;6157481;28;20283;-87
2023/06/25 11:18:50;;;;;;;7.83;7.07;;;;;;;22.14;51.92;98032.88;6142366;28;20722;-87
2023/06/25 11:21:53;;;;;;;7.53;6.83;;;;;;;21.96;52.05;98002.06;6174366;28;20238;-85
2023/06/25 11:24:57;;;;;;;12.02;7.10;;;;;;;22.37;49.64;98048.03;6153868;28;20295;-85
2023/06/25 11:28:09;;;;;;;7.70;7.00;;;;;;;22.30;50.11;98049.56;6168376;28;20324;-84
2023/06/25 11:31:13;;;;;;;9.83;7.80;;;;;;;22.14;49.04;97992.97;6159705;28;20246;-84
2023/06/25 11:34:25;;;;;;;7.80;7.10;;;;;;;22.18;49.78;97993.16;6160250;28;20284;-89
2023/06/25 11:37:31;;;;;;;8.10;6.97;;;;;;;22.73;48.07;98047.13;6177295;28;20324;-85
2023/06/25 11:40:36;;;;;;;8.13;7.30;;;;;;;22.63;49.91;98063.69;6190421;28;20244;-85
2023/06/25 11:43:38;;;;;;;7.93;6.97;;;;;;;21.74;50.34;97923.41;6155270;28;20253;-85
2023/06/25 11:46:46;;;;;;;7.57;6.80;;;;;;;22.54;48.87;98044.63;6142670;28;20238;-85
2023/06/25 11:49:56;;;;;;;7.53;6.57;;;;;;;22.50;49.01;98031.97;6172775;28;20236;-84
2023/06/25 11:52:58;;;;;;;8.10;7.30;;;;;;;22.40;48.81;98038.47;6159691;28;20379;-83
2023/06/25 11:56:00;;;;;;;8.70;6.87;;;;;;;22.02;49.32;97995.41;6161752;28;20229;-85
2023/06/25 11:59:03;;;;;;;7.20;6.57;;;;;;;22.14;49.60;98008.44;6160291;28;20722;-86
2023/06/25 12:02:06;;;;;;;8.13;7.27;;;;;;;22.52;50.08;98016.19;6168291;28;20229;-89
2023/06/25 12:05:08;;;;;;;8.23;6.70;;;;;;;22.66;50.54;98025.06;6168810;28;20708;-88
2023/06/25 12:08:11;;;;;;;8.02;7.22;;;;;;;22.70;51.02;98039.59;6169085;28;20229;-91
2023/06/25 12:11:13;;;;;;;8.27;6.80;;;;;;;22.50;47.77;98011.06;6173726;28;20813;-88
2023/06/25 12:14:16;;;;;;;7.60;6.80;;;;;;;22.43;46.41;97990.91;6168258;28;20234;-90
2023/06/25 12:17:18;;;;;;;8.70;6.68;;;;;;;22.60;46.91;97980.91;6157005;28;20260;-90
2023/06/25 12:20:21;;;;;;;7.93;7.22;;;;;;;23.27;48.43;98031.53;6172613;28;20423;-90
2023/06/25 12:23:24;;;;;;;7.38;6.68;;;;;;;23.29;48.37;98017.63;6186851;28;20233;-88
2023/06/25 12:26:26;;;;;;;7.65;6.95;;;;;;;23.50;46.08;98020.56;6157602;28;20263;-91
2023/06/25 12:29:28;;;;;;;8.13;6.93;;;;;;;23.13;46.04;97976.50;6161627;28;20707;-91
2023/06/25 12:32:31;;;;;;;9.27;6.97;;;;;;;23.07;46.43;97942.44;6152315;28;20386;-90
2023/06/25 12:35:33;;;;;;;7.13;6.43;;;;;;;23.25;47.11;97984.03;6141443;28;20781;-90
2023/06/25 12:38:35;;;;;;;8.25;6.88;;;;;;;23.08;48.34;97935.88;6159677;28;20336;-90
2023/06/25 12:41:37;;;;;;;7.47;6.63;;;;;;;23.50;50.41;97991.44;6174202;28;20750;-92
2023/06/25 12:44:39;;;;;;;7.95;7.15;;;;;;;23.57;45.54;97974.63;6193413;28;20241;-91
2023/06/25 12:47:42;;;;;;;7.80;7.07;;;;;;;23.83;45.42;97989.06;6177353;28;21503;-91
2023/06/25 12:50:44;;;;;;;7.95;6.93;;;;;;;23.76;44.74;98015.97;6204981;28;20225;-90
2023/06/25 12:53:47;;;;;;;6.90;6.30;;;;;;;23.44;45.62;97957.34;6191101;28;20293;-90
2023/06/25 12:56:49;;;;;;;8.60;7.05;;;;;;;23.86;47.50;98004.75;6190370;28;20245;-90
2023/06/25 12:59:51;;;;;;;7.75;6.93;;;;;;;23.61;45.08;97956.56;6205416;28;20217;-88
2023/06/25 13:02:53;;;;;;;7.47;6.78;;;;;;;23.36;45.24;97929.03;6190614;28;20615;-87
2023/06/25 13:05:55;;;;;;;7.70;6.90;;;;;;;23.62;46.68;98005.19;6221666;28;20228;-88
2023/06/25 13:08:58;;;;;;;7.43;6.72;;;;;;;23.21;46.81;97943.09;6180253;28;20224;-90
2023/06/25 13:12:00;;;;;;;7.43;6.60;;;;;;;23.47;47.59;97969.50;6201814;28;20218;-86
2023/06/25 13:15:02;;;;;;;7.50;6.70;;;;;;;23.20;47.65;97944.19;6219350;28;20213;-86
2023/06/25 13:18:04;;;;;;;7.80;6.25;;;;;;;23.37;44.42;97938.78;6182741;28;20225;-86
2023/06/25 13:21:08;;;;;;;7.60;6.90;;;;;;;23.22;44.61;97939.25;6195673;28;20209;-88
2023/06/25 13:24:12;;;;;;;7.53;6.72;;;;;;;23.17;47.22;97966.59;6185004;28;20262;-84
2023/06/25 13:27:14;;;;;;;7.57;6.65;;;;;;;23.10;50.33;97958.91;6189007;28;20217;-89
2023/06/25 13:30:38;;;;;;;7.40;6.70;;;;;;;23.22;50.77;97982.75;6210483;28;20245;-96
2023/06/25 13:34:27;;;;;;;8.25;6.72;;;;;;;21.12;47.62;97670.13;6180776;28;20262;-96
2023/06/25 13:37:32;;;;;;;9.20;6.97;;;;;;;21.76;45.98;97769.31;6195558;28;20261;-95
2023/06/25 13:40:47;;;;;;;6.22;5.63;;;;;;;21.33;46.96;97696.75;6201511;28;20230;-93
2023/06/25 13:43:51;;;;;;;6.88;6.18;;;;;;;21.17;44.95;97633.19;6184964;28;20237;-95
2023/06/25 13:47:00;;;;;;;7.55;5.88;;;;;;;23.58;44.82;97963.44;6188478;28;20214;-95
2023/06/25 13:50:22;;;;;;;6.68;6.07;;;;;;;21.30;45.97;97589.75;6203805;28;20257;-95
2023/06/25 13:53:44;;;;;;;6.60;6.00;;;;;;;21.77;47.31;97652.41;6198765;28;20202;-96
2023/06/25 13:57:08;;;;;;;6.55;5.95;;;;;;;23.92;47.57;97965.38;6210279;28;20230;-96
2023/06/25 14:01:19;;;;;;;6.75;6.05;;;;;;;24.07;44.81;97980.41;6176147;28;20221;-95
2023/06/25 14:05:35;;;;;;;6.60;5.68;;;;;;;22.07;47.41;97645.28;6246073;28;20229;-95
2023/06/25 14:09:16;;;;;;;7.47;6.78;;;;;;;21.97;46.71;97645.59;6254267;28;20219;-96
2023/06/25 14:12:19;;;;;;;6.50;5.65;;;;;;;23.88;50.03;97930.97;6209763;23;20239;-40
2023/06/25 14:15:21;;;;;;;7.25;6.57;;;;;;;23.65;49.81;97950.19;6203149;28;20239;-40
2023/06/25 14:18:26;;;;;;;6.78;6.18;;;;;;;23.54;51.60;97934.47;6202326;28;20580;-41